^^
Historische Daten
 
Tag Summe für Mai 26, 2017 Einheit:  Metric    English   Beide
« vorheriger Tag
nächster Tag »
Tag Woche Monat Jahr Benutzerdefiniert
  Aktuell: Max: Min: Durchschnitt:
Temperatur: 17.7 °C 17.9 °C 8.1 °C 12.3 °C
Tau Punkt: 10.6 °C 11.9 °C 6.8 °C 9.5 °C
Luftfeuchte: 63% 94% 62% 84%
Windgeschwindigkeit: 15.9km/h 16.7km/h 0.0km/h 6.7km/h
Wind Böen: 15.9km/h 16.7km/h - -
WindNorth - - SSW
Luftdruck: 1021.6 hPa 1022.6 hPa 1021.6 hPa -
Niederschlag: 0.0 mm      
Historical Graphs
 
 
Tabellendaten für Mai 26, 2017
Zeit Temperatur Tau Punkt Luftdruck Wind Windgeschwindigkeit Wind Böen Luftfeuchte Regen Rate (Stunde) Conditions
00:01 8.3 °C 7.1 °C 1022.2 hPa Calm     92% 0.0 mm RA
00:06 8.2 °C 6.9 °C 1022.2 hPa Calm     92% 0.0 mm RA
00:11 8.1 °C 6.8 °C 1022.2 hPa Calm     92% 0.0 mm CLR
00:16 8.1 °C 7.0 °C 1022.2 hPa Calm     93% 0.0 mm CLR
00:21 8.2 °C 7.1 °C 1022.6 hPa Calm     93% 0.0 mm CLR
00:26 8.3 °C 7.3 °C 1022.6 hPa Calm     93% 0.0 mm CLR
00:31 8.5 °C 7.4 °C 1022.6 hPa Calm     93% 0.0 mm CLR
00:36 8.6 °C 7.6 °C 1022.6 hPa Calm     93% 0.0 mm CLR
00:41 8.7 °C 7.6 °C 1022.6 hPa Calm     93% 0.0 mm CLR
00:46 8.6 °C 7.3 °C 1022.6 hPa Calm     92% 0.0 mm CLR
00:51 8.4 °C 7.2 °C 1022.6 hPa Calm     92% 0.0 mm CLR
00:56 8.2 °C 7.0 °C 1022.6 hPa Calm     92% 0.0 mm CLR
01:01 8.2 °C 7.1 °C 1022.6 hPa Calm     93% 0.0 mm CLR
01:06 8.3 °C 7.2 °C 1022.6 hPa Calm     93% 0.0 mm CLR
01:11 8.3 °C 7.1 °C 1022.2 hPa Calm     92% 0.0 mm CLR
01:16 8.4 °C 7.2 °C 1022.2 hPa Calm     92% 0.0 mm CLR
01:21 8.4 °C 7.2 °C 1022.2 hPa Calm     92% 0.0 mm CLR
01:26 8.3 °C 7.1 °C 1022.2 hPa NNW 1.9 km/h 1.9 km/h 92% 0.0 mm CLR
01:31 8.5 °C 7.3 °C 1022.2 hPa NW 1.9 km/h 1.9 km/h 92% 0.0 mm CLR
01:36 8.7 °C 7.6 °C 1022.2 hPa NW 3.7 km/h 3.7 km/h 93% 0.0 mm CLR
01:41 8.8 °C 7.7 °C 1022.2 hPa NW 1.9 km/h 1.9 km/h 93% 0.0 mm CLR
01:47 8.9 °C 7.7 °C 1022.2 hPa Calm   0.2 km/h 92% 0.0 mm CLR
01:52 9.0 °C 7.8 °C 1022.2 hPa North 3.7 km/h 3.7 km/h 92% 0.0 mm CLR
01:57 9.1 °C 7.9 °C 1022.2 hPa Calm     92% 0.0 mm CLR
02:02 9.1 °C 7.8 °C 1022.2 hPa North 1.8 km/h 1.8 km/h 92% 0.0 mm CLR
02:07 9.1 °C 7.8 °C 1022.2 hPa North 1.9 km/h 1.9 km/h 92% 0.0 mm CLR
02:12 9.1 °C 7.8 °C 1022.2 hPa NNW 1.9 km/h 1.9 km/h 92% 0.0 mm CLR
02:17 9.1 °C 8.0 °C 1021.9 hPa NW 1.9 km/h 1.9 km/h 93% 0.0 mm CLR
02:22 9.1 °C 7.8 °C 1022.2 hPa Calm     92% 0.0 mm CLR
02:27 9.0 °C 7.8 °C 1022.2 hPa NW 1.9 km/h 1.9 km/h 92% 0.0 mm CLR
02:32 9.1 °C 8.0 °C 1022.2 hPa NNW 5.6 km/h 5.6 km/h 93% 0.0 mm CLR
02:37 9.2 °C 8.2 °C 1022.2 hPa North 1.9 km/h 1.9 km/h 93% 0.0 mm CLR
02:42 9.2 °C 8.2 °C 1021.9 hPa NNW 1.9 km/h 1.9 km/h 93% 0.0 mm CLR
02:47 9.3 °C 8.2 °C 1021.9 hPa North 1.8 km/h 1.8 km/h 93% 0.0 mm CLR
02:52 9.3 °C 8.3 °C 1022.2 hPa North 5.3 km/h 5.3 km/h 93% 0.0 mm CLR
02:57 9.4 °C 8.3 °C 1021.9 hPa NNW 3.5 km/h 3.5 km/h 93% 0.0 mm CLR
03:02 9.4 °C 8.3 °C 1021.9 hPa NNW 1.9 km/h   93% 0.0 mm CLR
03:07 9.4 °C 8.3 °C 1021.9 hPa NNW 1.9 km/h 1.9 km/h 93% 0.0 mm CLR
03:12 9.4 °C 8.4 °C 1021.9 hPa NNE 1.9 km/h 1.9 km/h 93% 0.0 mm FEW
03:17 9.5 °C 8.4 °C 1021.9 hPa North 5.6 km/h   93% 0.0 mm FEW
03:22 9.6 °C 8.5 °C 1021.9 hPa North 5.6 km/h 5.6 km/h 93% 0.0 mm FEW
03:27 9.5 °C 8.4 °C 1021.9 hPa North 1.9 km/h   93% 0.0 mm FEW
03:32 9.4 °C 8.2 °C 1021.9 hPa North 5.6 km/h 5.6 km/h 92% 0.0 mm FEW
03:37 9.3 °C 8.3 °C 1021.9 hPa NNW 3.7 km/h   93% 0.0 mm FEW
03:42 9.3 °C 8.3 °C 1021.9 hPa NNW 3.5 km/h 3.5 km/h 93% 0.0 mm FEW
03:47 9.4 °C 8.3 °C 1021.9 hPa North 5.6 km/h 5.6 km/h 93% 0.0 mm FEW
03:52 9.4 °C 8.4 °C 1021.9 hPa NNW 1.9 km/h 1.9 km/h 93% 0.0 mm FEW
03:57 9.4 °C 8.4 °C 1021.9 hPa North 1.9 km/h 1.9 km/h 93% 0.0 mm FEW
04:02 9.4 °C 8.4 °C 1021.9 hPa NNW 5.6 km/h 5.6 km/h 93% 0.0 mm FEW
04:07 9.4 °C 8.3 °C 1021.9 hPa NNE 9.3 km/h 9.3 km/h 93% 0.0 mm FEW
04:12 9.3 °C 8.3 °C 1021.9 hPa NNW 3.7 km/h 3.7 km/h 93% 0.0 mm FEW
04:17 9.3 °C 8.3 °C 1021.9 hPa NNW 7.4 km/h 7.4 km/h 93% 0.0 mm FEW
04:22 9.3 °C 8.3 °C 1021.9 hPa NW 3.7 km/h 3.7 km/h 93% 0.0 mm FEW
04:27 9.3 °C 8.2 °C 1021.9 hPa North 5.6 km/h 5.6 km/h 93% 0.0 mm FEW
04:32 9.3 °C 8.4 °C 1021.9 hPa North 13.0 km/h 13.0 km/h 94% 0.0 mm FEW
04:37 9.2 °C 8.3 °C 1021.9 hPa NNW 5.6 km/h 5.6 km/h 94% 0.0 mm FEW
04:42 9.2 °C 8.3 °C 1021.9 hPa North 3.7 km/h 3.7 km/h 94% 0.0 mm FEW
04:47 9.1 °C 8.2 °C 1021.9 hPa NNW 5.3 km/h 5.3 km/h 94% 0.0 mm FEW
04:52 9.1 °C 8.2 °C 1021.9 hPa NNW 7.4 km/h 7.4 km/h 94% 0.0 mm FEW
04:57 9.1 °C 8.2 °C 1021.9 hPa WNW 7.4 km/h 7.4 km/h 94% 0.0 mm FEW
08:04 10.4 °C 9.5 °C 1021.9 hPa NNE 9.3 km/h 9.3 km/h 94% 0.0 mm FEW
08:09 10.5 °C 9.6 °C 1021.9 hPa NNE 16.7 km/h 16.7 km/h 94% 0.0 mm FEW
08:14 10.4 °C 9.5 °C 1021.9 hPa NE 3.7 km/h 3.7 km/h 94% 0.0 mm SCT
08:19 10.6 °C 9.6 °C 1021.9 hPa North 1.9 km/h 1.9 km/h 94% 0.0 mm SCT
08:24 10.6 °C 9.7 °C 1021.9 hPa NNW 9.3 km/h 9.3 km/h 94% 0.0 mm SCT
08:29 10.6 °C 9.5 °C 1022.2 hPa NNE 11.1 km/h 11.1 km/h 93% 0.0 mm SCT
08:34 10.7 °C 9.8 °C 1022.2 hPa NNE 5.6 km/h 5.6 km/h 94% 0.0 mm SCT
08:39 10.9 °C 10.0 °C 1022.2 hPa North 3.7 km/h 3.7 km/h 94% 0.0 mm SCT
08:44 11.3 °C 10.2 °C 1022.2 hPa NNW 7.4 km/h 7.4 km/h 93% 0.0 mm FEW
08:49 11.6 °C 10.4 °C 1022.2 hPa North 5.6 km/h 5.6 km/h 93% 0.0 mm FEW
08:54 11.4 °C 10.0 °C 1022.6 hPa NNW 3.7 km/h 3.7 km/h 91% 0.0 mm FEW
08:59 12.2 °C 10.7 °C 1022.6 hPa West 3.7 km/h 3.7 km/h 91% 0.0 mm FEW
09:04 12.1 °C 10.3 °C 1022.6 hPa NW 5.6 km/h 5.6 km/h 89% 0.0 mm FEW
09:09 11.8 °C 10.1 °C 1022.6 hPa NNE 12.4 km/h 12.4 km/h 89% 0.0 mm FEW
09:14 11.7 °C 10.1 °C 1022.6 hPa NNE 9.3 km/h 9.3 km/h 90% 0.0 mm SCT
09:19 11.8 °C 10.2 °C 1022.6 hPa NNW 11.1 km/h 11.1 km/h 90% 0.0 mm SCT
09:24 11.7 °C 9.8 °C 1022.6 hPa NE 13.0 km/h 13.0 km/h 88% 0.0 mm SCT
09:25 11.7 °C 9.9 °C 1022.6 hPa NNE 5.6 km/h 5.6 km/h 89% 0.0 mm SCT
09:30 11.9 °C 10.3 °C 1022.6 hPa NNE 13.0 km/h 13.0 km/h 90% 0.0 mm SCT
09:35 12.2 °C 10.2 °C 1022.6 hPa North 9.3 km/h 9.3 km/h 88% 0.0 mm SCT
09:40 12.2 °C 10.1 °C 1022.6 hPa North 9.3 km/h 9.3 km/h 87% 0.0 mm SCT
09:45 12.6 °C 10.8 °C 1022.6 hPa NNW 11.1 km/h 11.1 km/h 89% 0.0 mm FEW
09:50 13.1 °C 10.8 °C 1022.6 hPa North 16.7 km/h 16.7 km/h 86% 0.0 mm FEW
09:55 12.8 °C 10.3 °C 1022.6 hPa NNE 13.0 km/h 13.0 km/h 85% 0.0 mm FEW
10:00 13.1 °C 10.3 °C 1022.6 hPa North 11.1 km/h 11.1 km/h 83% 0.0 mm FEW
10:05 12.7 °C 10.1 °C 1022.6 hPa NW 16.7 km/h 16.7 km/h 84% 0.0 mm FEW
10:10 12.7 °C 10.2 °C 1022.6 hPa North 7.4 km/h 7.4 km/h 85% 0.0 mm FEW
10:15 12.9 °C 10.3 °C 1022.6 hPa North 9.3 km/h 9.3 km/h 84% 0.0 mm SCT
10:20 12.8 °C 10.2 °C 1022.6 hPa ENE 1.9 km/h   84% 0.0 mm SCT
10:25 13.9 °C 10.9 °C 1022.6 hPa North 14.8 km/h 14.8 km/h 82% 0.0 mm SCT
10:30 14.0 °C 10.8 °C 1022.2 hPa North 5.6 km/h 5.6 km/h 81% 0.0 mm SCT
10:35 13.8 °C 10.4 °C 1022.2 hPa North 7.4 km/h 7.4 km/h 80% 0.0 mm SCT
10:40 13.3 °C 9.9 °C 1022.2 hPa North 3.7 km/h 3.7 km/h 80% 0.0 mm SCT
10:45 13.1 °C 9.9 °C 1022.2 hPa North 1.9 km/h 1.9 km/h 81% 0.0 mm FEW
10:50 13.3 °C 10.7 °C 1022.2 hPa NNE 5.6 km/h 5.6 km/h 84% 0.0 mm FEW
10:55 13.6 °C 10.4 °C 1022.2 hPa WNW 5.6 km/h 5.6 km/h 81% 0.0 mm FEW
11:00 13.6 °C 10.3 °C 1022.2 hPa NW 7.4 km/h 7.4 km/h 81% 0.0 mm FEW
11:05 13.9 °C 10.7 °C 1022.2 hPa WSW 1.8 km/h 1.8 km/h 81% 0.0 mm FEW
11:10 14.2 °C 10.8 °C 1022.2 hPa North 5.6 km/h 5.6 km/h 80% 0.0 mm FEW
11:15 14.7 °C 11.5 °C 1022.2 hPa WNW 1.9 km/h 1.9 km/h 81% 0.0 mm FEW
11:20 15.2 °C 11.2 °C 1022.2 hPa East 1.9 km/h 1.9 km/h 77% 0.0 mm FEW
11:25 15.1 °C 11.3 °C 1022.2 hPa North 13.0 km/h 13.0 km/h 78% 0.0 mm FEW
11:30 15.6 °C 11.6 °C 1022.2 hPa ENE 9.3 km/h 9.3 km/h 77% 0.0 mm FEW
11:35 15.2 °C 10.9 °C 1022.2 hPa East 8.8 km/h 8.8 km/h 76% 0.0 mm FEW
11:40 15.6 °C 11.7 °C 1022.2 hPa NW 7.4 km/h 7.4 km/h 78% 0.0 mm FEW
11:45 15.8 °C 11.3 °C 1022.2 hPa NNW 14.8 km/h 14.8 km/h 75% 0.0 mm FEW
11:50 15.5 °C 10.9 °C 1022.2 hPa North 9.3 km/h 9.3 km/h 74% 0.0 mm FEW
11:55 15.7 °C 11.2 °C 1022.2 hPa NNE 13.0 km/h 13.0 km/h 75% 0.0 mm FEW
12:00 16.1 °C 11.4 °C 1022.2 hPa NNE 3.7 km/h 3.7 km/h 74% 0.0 mm FEW
12:05 15.8 °C 10.8 °C 1022.2 hPa North 13.0 km/h 13.0 km/h 72% 0.0 mm FEW
12:06 15.8 °C 10.8 °C 1022.2 hPa NNE 13.0 km/h 13.0 km/h 72% 0.0 mm FEW
12:11 16.3 °C 11.3 °C 1022.2 hPa North 14.8 km/h 14.8 km/h 72% 0.0 mm SCT
12:16 16.5 °C 11.0 °C 1022.2 hPa ENE 9.3 km/h 9.3 km/h 70% 0.0 mm SCT
12:21 16.6 °C 11.3 °C 1022.2 hPa NNE 14.8 km/h 14.8 km/h 71% 0.0 mm SCT
12:26 16.4 °C 11.4 °C 1022.2 hPa NW 16.7 km/h 16.7 km/h 72% 0.0 mm SCT
12:31 16.6 °C 11.9 °C 1022.2 hPa NNE 5.3 km/h 5.3 km/h 74% 0.0 mm SCT
12:36 15.8 °C 10.6 °C 1022.2 hPa East 16.7 km/h 16.7 km/h 71% 0.0 mm SCT
12:41 16.6 °C 11.9 °C 1022.2 hPa NNW 7.1 km/h 7.1 km/h 74% 0.0 mm SCT
12:46 16.1 °C 10.6 °C 1022.2 hPa NNE 15.9 km/h 15.9 km/h 70% 0.0 mm SCT
12:51 16.4 °C 11.7 °C 1022.2 hPa NNW 16.7 km/h 16.7 km/h 74% 0.0 mm SCT
12:56 16.7 °C 11.0 °C 1022.2 hPa NNE 12.4 km/h 12.4 km/h 69% 0.0 mm SCT
13:01 16.5 °C 11.2 °C 1022.2 hPa North 9.3 km/h 9.3 km/h 71% 0.0 mm SCT
13:06 17.2 °C 11.5 °C 1022.2 hPa NNW 9.3 km/h 9.3 km/h 69% 0.0 mm SCT
13:11 16.8 °C 11.3 °C 1022.2 hPa NNE 9.3 km/h 9.3 km/h 70% 0.0 mm SCT
13:16 16.6 °C 11.1 °C 1022.2 hPa NNW 14.8 km/h 14.8 km/h 70% 0.0 mm SCT
13:21 17.3 °C 11.6 °C 1022.2 hPa North 14.8 km/h 14.8 km/h 69% 0.0 mm SCT
13:26 17.2 °C 11.3 °C 1022.2 hPa NE 7.4 km/h 7.4 km/h 68% 0.0 mm SCT
13:31 17.8 °C 11.6 °C 1022.2 hPa NW 7.4 km/h 7.4 km/h 67% 0.0 mm SCT
13:36 17.9 °C 11.4 °C 1022.2 hPa North 3.7 km/h 3.7 km/h 66% 0.0 mm SCT
13:41 17.3 °C 10.4 °C 1021.9 hPa ESE 5.6 km/h 5.6 km/h 64% 0.0 mm SCT
13:46 16.6 °C 9.8 °C 1021.9 hPa North 14.8 km/h 14.8 km/h 64% 0.0 mm SCT
13:51 16.8 °C 10.7 °C 1021.9 hPa NNE 16.7 km/h 16.7 km/h 67% 0.0 mm SCT
13:56 16.7 °C 10.3 °C 1021.9 hPa NNW 5.6 km/h 5.6 km/h 66% 0.0 mm SCT
13:58 16.5 °C 10.3 °C 1021.9 hPa NNW 7.4 km/h 7.4 km/h 67% 0.0 mm SCT
14:03 17.0 °C 10.6 °C 1021.9 hPa NE 14.8 km/h 14.8 km/h 66% 0.0 mm SCT
14:08 17.1 °C 10.9 °C 1021.9 hPa ESE 16.7 km/h 16.7 km/h 67% 0.0 mm SCT
14:13 16.9 °C 10.9 °C 1021.9 hPa North 14.8 km/h 14.8 km/h 68% 0.0 mm SCT
14:18 17.1 °C 10.2 °C 1021.9 hPa NNE 9.3 km/h 9.3 km/h 64% 0.0 mm SCT
14:23 17.0 °C 10.4 °C 1021.9 hPa NE 1.9 km/h   65% 0.0 mm SCT
14:28 17.8 °C 10.6 °C 1021.9 hPa NNW 14.8 km/h 14.8 km/h 63% 0.0 mm SCT
14:33 16.8 °C 10.2 °C 1021.9 hPa North 16.7 km/h 16.7 km/h 65% 0.0 mm SCT
14:38 16.9 °C 10.3 °C 1021.9 hPa North 5.6 km/h 5.6 km/h 65% 0.0 mm SCT
14:43 17.1 °C 10.7 °C 1021.9 hPa NNW 9.3 km/h 9.3 km/h 66% 0.0 mm SCT
14:48 17.2 °C 10.3 °C 1021.9 hPa NW 5.6 km/h 5.6 km/h 64% 0.0 mm SCT
14:53 17.7 °C 10.6 °C 1021.9 hPa North 9.3 km/h 9.3 km/h 63% 0.0 mm SCT
14:58 17.6 °C 10.2 °C 1021.9 hPa North 13.0 km/h 13.0 km/h 62% 0.0 mm SCT
15:03 17.7 °C 10.6 °C 1021.6 hPa North 15.9 km/h 15.9 km/h 63% 0.0 mm SCT
Wetterstation-Johanngeorgenstadt
bereitgestellt durch Wetterstation-Johanngeorgenstadt und Weather Underground - 2.25 mb
Besucherstatistik
Besucher gesamt: 626.819
Besucher heute: 792
Besucher gestern: 1.390
Besucher pro Tag: 817,45
gerade online: 24
max. online: 156
Seitenaufrufe diese Seite: 1.903
counter Statistiken